sensor_id;sensor_type;location;lat;lon;timestamp;pressure;altitude;pressure_sealevel;temperature;humidity
48563;BME280;34981;49.104;11.396;2023-06-19T15:52:44;95750.19;;;25.78;100.00
48563;BME280;34981;49.104;11.396;2023-06-19T15:55:13;95753.94;;;25.67;100.00
48563;BME280;34981;49.104;11.396;2023-06-19T15:57:53;95743.28;;;25.91;100.00
48563;BME280;34981;49.104;11.396;2023-06-19T16:00:21;95740.25;;;26.00;100.00
48563;BME280;34981;49.104;11.396;2023-06-19T16:02:49;95735.50;;;26.30;100.00
48563;BME280;34981;49.104;11.396;2023-06-19T16:05:16;95732.00;;;26.30;100.00
48563;BME280;34981;49.104;11.396;2023-06-19T16:07:43;95716.34;;;26.41;100.00
48563;BME280;34981;49.104;11.396;2023-06-19T16:10:11;95719.06;;;26.38;100.00
48563;BME280;34981;49.104;11.396;2023-06-19T16:12:38;95726.44;;;26.26;100.00
48563;BME280;34981;49.104;11.396;2023-06-19T16:15:05;95718.25;;;26.33;100.00
48563;BME280;34981;49.104;11.396;2023-06-19T16:17:32;95733.41;;;26.20;100.00
48563;BME280;34981;49.104;11.396;2023-06-19T16:19:59;95728.81;;;26.28;100.00
48563;BME280;34981;49.104;11.396;2023-06-19T16:22:27;95725.69;;;26.29;100.00
48563;BME280;34981;49.104;11.396;2023-06-19T16:24:54;95720.25;;;26.37;100.00
48563;BME280;34981;49.104;11.396;2023-06-19T16:27:21;95725.75;;;26.37;100.00
48563;BME280;34981;49.104;11.396;2023-06-19T16:29:48;95722.06;;;26.25;100.00
48563;BME280;34981;49.104;11.396;2023-06-19T16:32:15;95723.09;;;26.44;100.00
48563;BME280;34981;49.104;11.396;2023-06-19T16:34:42;95716.88;;;26.20;100.00
48563;BME280;34981;49.104;11.396;2023-06-19T16:37:09;95716.00;;;26.13;100.00
48563;BME280;34981;49.104;11.396;2023-06-19T16:39:36;95721.63;;;26.23;100.00
48563;BME280;34981;49.104;11.396;2023-06-19T16:42:04;95715.66;;;26.18;100.00
48563;BME280;34981;49.104;11.396;2023-06-19T16:44:31;95718.59;;;26.28;100.00
48563;BME280;34981;49.104;11.396;2023-06-19T16:46:58;95713.22;;;26.43;100.00
48563;BME280;34981;49.104;11.396;2023-06-19T16:49:26;95704.97;;;26.43;100.00
48563;BME280;34981;49.104;11.396;2023-06-19T16:51:53;95708.38;;;26.32;100.00
48563;BME280;34981;49.104;11.396;2023-06-19T16:54:20;95699.28;;;26.28;100.00
48563;BME280;34981;49.104;11.396;2023-06-19T16:56:47;95704.47;;;26.33;100.00
48563;BME280;34981;49.104;11.396;2023-06-19T16:59:14;95694.94;;;26.27;100.00
48563;BME280;34981;49.104;11.396;2023-06-19T17:01:41;95690.84;;;26.14;100.00
48563;BME280;34981;49.104;11.396;2023-06-19T17:04:09;95684.25;;;26.22;100.00
48563;BME280;34981;49.104;11.396;2023-06-19T17:06:36;95672.13;;;26.30;100.00
48563;BME280;34981;49.104;11.396;2023-06-19T17:09:03;95682.66;;;26.21;100.00
48563;BME280;34981;49.104;11.396;2023-06-19T17:11:30;95682.09;;;26.09;100.00
48563;BME280;34981;49.104;11.396;2023-06-19T17:13:57;95680.47;;;26.04;100.00
48563;BME280;34981;49.104;11.396;2023-06-19T17:16:25;95678.53;;;26.08;100.00
48563;BME280;34981;49.104;11.396;2023-06-19T17:18:52;95683.56;;;25.99;100.00
48563;BME280;34981;49.104;11.396;2023-06-19T17:21:19;95677.38;;;26.09;100.00
48563;BME280;34981;49.104;11.396;2023-06-19T17:23:46;95679.84;;;26.18;100.00
48563;BME280;34981;49.104;11.396;2023-06-19T17:26:13;95678.97;;;26.10;100.00
48563;BME280;34981;49.104;11.396;2023-06-19T17:28:40;95673.44;;;26.10;100.00
48563;BME280;34981;49.104;11.396;2023-06-19T17:31:07;95682.50;;;26.07;100.00
48563;BME280;34981;49.104;11.396;2023-06-19T17:33:35;95679.31;;;26.05;100.00
48563;BME280;34981;49.104;11.396;2023-06-19T17:36:02;95678.13;;;26.06;100.00
48563;BME280;34981;49.104;11.396;2023-06-19T17:38:29;95675.69;;;26.01;100.00
48563;BME280;34981;49.104;11.396;2023-06-19T17:40:56;95684.38;;;26.03;100.00
48563;BME280;34981;49.104;11.396;2023-06-19T17:43:24;95682.78;;;26.02;100.00
48563;BME280;34981;49.104;11.396;2023-06-19T17:45:51;95683.66;;;26.06;100.00
48563;BME280;34981;49.104;11.396;2023-06-19T17:48:18;95685.25;;;26.07;100.00
48563;BME280;34981;49.104;11.396;2023-06-19T17:50:45;95685.25;;;26.07;100.00
48563;BME280;34981;49.104;11.396;2023-06-19T17:53:12;95684.38;;;26.03;100.00
48563;BME280;34981;49.104;11.396;2023-06-19T17:55:40;95685.53;;;25.98;100.00
48563;BME280;34981;49.104;11.396;2023-06-19T17:58:09;95680.34;;;25.93;100.00
48563;BME280;34981;49.104;11.396;2023-06-19T18:00:36;95692.84;;;25.87;100.00
48563;BME280;34981;49.104;11.396;2023-06-19T18:03:03;95685.72;;;25.83;100.00
48563;BME280;34981;49.104;11.396;2023-06-19T18:05:31;95684.81;;;25.75;100.00
48563;BME280;34981;49.104;11.396;2023-06-19T18:07:58;95693.47;;;25.74;100.00
48563;BME280;34981;49.104;11.396;2023-06-19T18:10:25;95695.41;;;25.73;100.00
48563;BME280;34981;49.104;11.396;2023-06-19T18:12:53;95693.78;;;25.69;100.00
48563;BME280;34981;49.104;11.396;2023-06-19T18:15:20;95695.69;;;25.65;100.00
48563;BME280;34981;49.104;11.396;2023-06-19T18:17:47;95694.44;;;25.58;100.00
48563;BME280;34981;49.104;11.396;2023-06-19T18:20:14;95698.28;;;25.54;100.00
48563;BME280;34981;49.104;11.396;2023-06-19T18:22:41;95700.97;;;25.50;100.00
48563;BME280;34981;49.104;11.396;2023-06-19T18:25:10;95701.66;;;25.44;100.00
48563;BME280;34981;49.104;11.396;2023-06-19T18:27:37;95704.72;;;25.39;100.00
48563;BME280;34981;49.104;11.396;2023-06-19T18:30:06;95710.06;;;25.28;100.00
48563;BME280;34981;49.104;11.396;2023-06-19T18:32:34;95717.81;;;25.19;100.00
48563;BME280;34981;49.104;11.396;2023-06-19T18:35:01;95717.00;;;25.18;100.00
48563;BME280;34981;49.104;11.396;2023-06-19T18:37:28;95710.63;;;25.14;100.00
48563;BME280;34981;49.104;11.396;2023-06-19T18:39:55;95717.63;;;25.08;100.00
48563;BME280;34981;49.104;11.396;2023-06-19T18:42:22;95703.50;;;25.10;100.00
48563;BME280;34981;49.104;11.396;2023-06-19T18:44:50;95711.31;;;25.08;100.00
48563;BME280;34981;49.104;11.396;2023-06-19T18:47:17;95711.97;;;24.98;100.00
48563;BME280;34981;49.104;11.396;2023-06-19T18:49:45;95725.34;;;24.80;100.00
48563;BME280;34981;49.104;11.396;2023-06-19T18:52:12;95732.88;;;24.60;100.00
48563;BME280;34981;49.104;11.396;2023-06-19T18:54:39;95756.19;;;24.47;100.00
48563;BME280;34981;49.104;11.396;2023-06-19T18:57:06;95754.84;;;24.60;100.00
48563;BME280;34981;49.104;11.396;2023-06-19T18:59:33;95752.47;;;24.59;100.00
48563;BME280;34981;49.104;11.396;2023-06-19T19:02:01;95760.63;;;24.55;100.00
48563;BME280;34981;49.104;11.396;2023-06-19T19:04:28;95772.16;;;24.41;100.00
48563;BME280;34981;49.104;11.396;2023-06-19T19:06:55;95770.06;;;24.35;100.00
48563;BME280;34981;49.104;11.396;2023-06-19T19:09:22;95771.59;;;24.32;100.00
48563;BME280;34981;49.104;11.396;2023-06-19T19:11:49;95787.22;;;23.93;100.00
48563;BME280;34981;49.104;11.396;2023-06-19T19:14:18;95806.78;;;23.92;100.00
48563;BME280;34981;49.104;11.396;2023-06-19T19:16:45;95819.22;;;23.70;100.00
48563;BME280;34981;49.104;11.396;2023-06-19T19:19:12;95888.66;;;23.55;100.00
48563;BME280;34981;49.104;11.396;2023-06-19T19:21:39;95903.66;;;23.29;100.00
48563;BME280;34981;49.104;11.396;2023-06-19T19:24:06;95904.38;;;23.42;100.00
48563;BME280;34981;49.104;11.396;2023-06-19T19:26:33;95884.75;;;23.56;100.00
48563;BME280;34981;49.104;11.396;2023-06-19T19:29:01;95863.66;;;23.60;100.00
48563;BME280;34981;49.104;11.396;2023-06-19T19:31:28;95853.25;;;23.65;100.00
48563;BME280;34981;49.104;11.396;2023-06-19T19:33:55;95861.53;;;23.38;100.00
48563;BME280;34981;49.104;11.396;2023-06-19T19:36:23;95847.09;;;23.41;100.00
48563;BME280;34981;49.104;11.396;2023-06-19T19:38:50;95855.69;;;23.39;100.00
48563;BME280;34981;49.104;11.396;2023-06-19T19:41:17;95853.56;;;23.33;100.00
48563;BME280;34981;49.104;11.396;2023-06-19T19:43:44;95855.84;;;23.30;100.00
48563;BME280;34981;49.104;11.396;2023-06-19T19:46:11;95860.91;;;23.28;100.00
48563;BME280;34981;49.104;11.396;2023-06-19T19:48:38;95874.88;;;23.23;100.00
48563;BME280;34981;49.104;11.396;2023-06-19T19:51:05;95883.25;;;22.99;100.00
48563;BME280;34981;49.104;11.396;2023-06-19T19:53:32;95883.34;;;23.03;100.00
48563;BME280;34981;49.104;11.396;2023-06-19T19:56:00;95878.75;;;23.07;100.00
48563;BME280;34981;49.104;11.396;2023-06-19T19:58:27;95877.03;;;23.02;100.00
48563;BME280;34981;49.104;11.396;2023-06-19T20:00:54;95888.72;;;22.99;100.00
48563;BME280;34981;49.104;11.396;2023-06-19T20:03:21;95899.16;;;22.94;100.00
48563;BME280;34981;49.104;11.396;2023-06-19T20:05:48;95898.59;;;22.88;100.00
48563;BME280;34981;49.104;11.396;2023-06-19T20:08:15;95912.84;;;22.53;100.00
48563;BME280;34981;49.104;11.396;2023-06-19T20:10:42;95918.28;;;22.66;100.00
48563;BME280;34981;49.104;11.396;2023-06-19T20:13:10;95953.97;;;22.29;100.00
48563;BME280;34981;49.104;11.396;2023-06-19T20:15:38;95960.59;;;22.40;100.00
48563;BME280;34981;49.104;11.396;2023-06-19T20:18:05;95953.84;;;22.50;100.00
48563;BME280;34981;49.104;11.396;2023-06-19T20:20:33;95955.59;;;22.42;100.00
48563;BME280;34981;49.104;11.396;2023-06-19T20:23:00;95963.81;;;22.42;100.00
48563;BME280;34981;49.104;11.396;2023-06-19T20:25:27;96007.56;;;21.94;100.00
48563;BME280;34981;49.104;11.396;2023-06-19T20:27:54;96057.31;;;21.96;100.00
48563;BME280;34981;49.104;11.396;2023-06-19T20:30:34;96065.22;;;22.09;100.00
48563;BME280;34981;49.104;11.396;2023-06-19T20:33:01;96049.84;;;22.17;100.00
48563;BME280;34981;49.104;11.396;2023-06-19T20:35:29;96036.63;;;22.19;100.00
48563;BME280;34981;49.104;11.396;2023-06-19T20:37:56;96079.38;;;21.79;100.00
48563;BME280;34981;49.104;11.396;2023-06-19T20:40:23;96123.66;;;21.81;100.00
48563;BME280;34981;49.104;11.396;2023-06-19T20:42:52;96101.13;;;21.96;100.00
48563;BME280;34981;49.104;11.396;2023-06-19T20:45:19;96071.50;;;22.10;100.00
48563;BME280;34981;49.104;11.396;2023-06-19T20:47:47;96075.47;;;22.00;100.00
48563;BME280;34981;49.104;11.396;2023-06-19T20:50:14;96067.63;;;21.99;100.00
48563;BME280;34981;49.104;11.396;2023-06-19T20:52:41;96054.94;;;22.06;100.00
48563;BME280;34981;49.104;11.396;2023-06-19T20:55:09;96057.13;;;22.01;100.00
48563;BME280;34981;49.104;11.396;2023-06-19T20:57:36;96064.09;;;21.98;100.00
48563;BME280;34981;49.104;11.396;2023-06-19T21:00:03;96058.63;;;21.98;100.00
48563;BME280;34981;49.104;11.396;2023-06-19T21:02:37;96062.78;;;21.96;100.00
48563;BME280;34981;49.104;11.396;2023-06-19T21:05:04;96074.84;;;21.83;100.00
48563;BME280;34981;49.104;11.396;2023-06-19T21:07:32;96076.78;;;21.82;100.00
48563;BME280;34981;49.104;11.396;2023-06-19T21:12:26;96068.75;;;21.98;100.00
48563;BME280;34981;49.104;11.396;2023-06-19T21:14:53;96062.50;;;21.97;100.00
48563;BME280;34981;49.104;11.396;2023-06-19T21:17:21;96056.84;;;21.94;100.00
48563;BME280;34981;49.104;11.396;2023-06-19T21:19:49;96060.47;;;21.86;100.00
48563;BME280;34981;49.104;11.396;2023-06-19T21:22:16;96049.28;;;21.79;100.00
48563;BME280;34981;49.104;11.396;2023-06-19T21:24:43;96041.53;;;21.81;100.00
48563;BME280;34981;49.104;11.396;2023-06-19T21:27:10;96040.63;;;21.77;100.00
48563;BME280;34981;49.104;11.396;2023-06-19T21:29:37;96029.81;;;21.80;100.00
48563;BME280;34981;49.104;11.396;2023-06-19T21:32:04;96028.44;;;21.74;100.00
48563;BME280;34981;49.104;11.396;2023-06-19T21:34:32;96032.75;;;21.75;100.00
48563;BME280;34981;49.104;11.396;2023-06-19T21:36:59;96024.22;;;21.77;100.00
48563;BME280;34981;49.104;11.396;2023-06-19T21:39:26;96011.69;;;21.75;100.00
48563;BME280;34981;49.104;11.396;2023-06-19T21:41:53;96017.47;;;21.62;100.00
48563;BME280;34981;49.104;11.396;2023-06-19T21:44:20;96008.88;;;21.63;100.00
48563;BME280;34981;49.104;11.396;2023-06-19T21:46:47;96016.44;;;21.66;100.00
48563;BME280;34981;49.104;11.396;2023-06-19T21:49:15;96012.09;;;21.65;100.00
48563;BME280;34981;49.104;11.396;2023-06-19T21:51:42;95999.56;;;21.64;100.00
48563;BME280;34981;49.104;11.396;2023-06-19T21:54:10;96006.16;;;21.63;100.00
48563;BME280;34981;49.104;11.396;2023-06-19T21:56:37;95994.06;;;21.64;100.00
48563;BME280;34981;49.104;11.396;2023-06-19T21:59:04;95991.34;;;21.64;100.00
48563;BME280;34981;49.104;11.396;2023-06-19T22:01:32;96002.97;;;21.61;100.00
48563;BME280;34981;49.104;11.396;2023-06-19T22:03:59;95988.38;;;21.57;100.00
48563;BME280;34981;49.104;11.396;2023-06-19T22:06:26;95991.88;;;21.46;100.00
48563;BME280;34981;49.104;11.396;2023-06-19T22:08:53;95987.88;;;21.43;100.00
48563;BME280;34981;49.104;11.396;2023-06-19T22:11:27;95989.94;;;21.46;100.00
48563;BME280;34981;49.104;11.396;2023-06-19T22:13:54;95984.09;;;21.35;100.00
48563;BME280;34981;49.104;11.396;2023-06-19T22:16:21;95980.88;;;21.33;100.00
48563;BME280;34981;49.104;11.396;2023-06-19T22:18:49;95985.13;;;21.31;100.00
48563;BME280;34981;49.104;11.396;2023-06-19T22:21:16;95975.41;;;21.33;100.00
48563;BME280;34981;49.104;11.396;2023-06-19T22:23:43;95969.50;;;21.31;100.00
48563;BME280;34981;49.104;11.396;2023-06-19T22:26:10;95966.63;;;21.28;100.00
48563;BME280;34981;49.104;11.396;2023-06-19T22:28:37;95964.94;;;21.23;100.00
48563;BME280;34981;49.104;11.396;2023-06-19T22:31:04;95962.84;;;21.20;100.00
48563;BME280;34981;49.104;11.396;2023-06-19T22:33:33;95973.41;;;21.10;100.00
48563;BME280;34981;49.104;11.396;2023-06-19T22:36:00;95973.41;;;21.10;100.00
48563;BME280;34981;49.104;11.396;2023-06-19T22:38:27;95972.34;;;21.02;100.00
48563;BME280;34981;49.104;11.396;2023-06-19T22:40:54;95982.47;;;21.02;100.00
48563;BME280;34981;49.104;11.396;2023-06-19T22:43:21;95999.16;;;20.67;100.00
48563;BME280;34981;49.104;11.396;2023-06-19T22:45:49;96047.03;;;20.44;100.00
48563;BME280;34981;49.104;11.396;2023-06-19T22:48:16;96019.03;;;20.47;100.00
48563;BME280;34981;49.104;11.396;2023-06-19T22:50:45;96013.94;;;20.45;100.00
48563;BME280;34981;49.104;11.396;2023-06-19T22:53:15;95997.13;;;20.55;100.00
48563;BME280;34981;49.104;11.396;2023-06-19T22:55:42;95977.97;;;20.64;100.00
48563;BME280;34981;49.104;11.396;2023-06-19T22:58:09;95979.69;;;20.48;100.00
48563;BME280;34981;49.104;11.396;2023-06-19T23:00:36;95974.63;;;20.58;100.00
48563;BME280;34981;49.104;11.396;2023-06-19T23:03:04;95959.97;;;20.63;100.00
48563;BME280;34981;49.104;11.396;2023-06-19T23:05:32;95959.44;;;20.49;100.00
48563;BME280;34981;49.104;11.396;2023-06-19T23:08:02;95960.19;;;20.29;100.00
48563;BME280;34981;49.104;11.396;2023-06-19T23:10:29;95969.31;;;20.33;100.00
48563;BME280;34981;49.104;11.396;2023-06-19T23:12:57;95960.34;;;20.53;100.00
48563;BME280;34981;49.104;11.396;2023-06-19T23:15:24;95956.31;;;20.59;100.00
48563;BME280;34981;49.104;11.396;2023-06-19T23:17:51;95951.50;;;20.56;100.00
48563;BME280;34981;49.104;11.396;2023-06-19T23:20:22;95943.69;;;20.46;100.00
48563;BME280;34981;49.104;11.396;2023-06-19T23:22:49;95955.97;;;20.40;100.00
48563;BME280;34981;49.104;11.396;2023-06-19T23:25:16;95933.72;;;20.50;100.00
48563;BME280;34981;49.104;11.396;2023-06-19T23:27:43;95927.13;;;20.51;100.00
48563;BME280;34981;49.104;11.396;2023-06-19T23:30:10;95929.03;;;20.30;100.00
48563;BME280;34981;49.104;11.396;2023-06-19T23:32:37;95917.59;;;20.36;100.00
48563;BME280;34981;49.104;11.396;2023-06-19T23:35:05;95922.63;;;20.26;100.00
48563;BME280;34981;49.104;11.396;2023-06-19T23:37:32;95916.81;;;20.36;100.00
48563;BME280;34981;49.104;11.396;2023-06-19T23:39:59;95901.38;;;20.31;100.00
48563;BME280;34981;49.104;11.396;2023-06-19T23:42:29;95901.78;;;20.21;100.00
48563;BME280;34981;49.104;11.396;2023-06-19T23:44:56;95900.47;;;20.27;100.00
48563;BME280;34981;49.104;11.396;2023-06-19T23:47:23;95901.38;;;20.31;100.00
48563;BME280;34981;49.104;11.396;2023-06-19T23:49:50;95889.31;;;20.32;100.00
48563;BME280;34981;49.104;11.396;2023-06-19T23:52:17;95883.75;;;20.29;100.00
48563;BME280;34981;49.104;11.396;2023-06-19T23:55:04;95893.84;;;20.07;100.00
48563;BME280;34981;49.104;11.396;2023-06-19T23:57:31;95892.84;;;20.12;100.00
48563;BME280;34981;49.104;11.396;2023-06-19T23:59:58;95886.75;;;20.15;100.00
